sensor_id;sensor_type;location;lat;lon;timestamp;P1;durP1;ratioP1;P2;durP2;ratioP2
41653;SDS011;30790;52.030;7.110;2022-12-18T00:00:39;23.75;;;14.68;;
41653;SDS011;30790;52.030;7.110;2022-12-18T00:03:06;26.70;;;14.98;;
41653;SDS011;30790;52.030;7.110;2022-12-18T00:05:31;26.05;;;14.55;;
41653;SDS011;30790;52.030;7.110;2022-12-18T00:07:56;25.73;;;14.43;;
41653;SDS011;30790;52.030;7.110;2022-12-18T00:10:21;25.65;;;14.82;;
41653;SDS011;30790;52.030;7.110;2022-12-18T00:12:47;21.80;;;13.10;;
41653;SDS011;30790;52.030;7.110;2022-12-18T00:15:12;24.52;;;14.07;;
41653;SDS011;30790;52.030;7.110;2022-12-18T00:17:37;23.65;;;13.25;;
41653;SDS011;30790;52.030;7.110;2022-12-18T00:20:03;30.77;;;14.68;;
41653;SDS011;30790;52.030;7.110;2022-12-18T00:22:28;27.52;;;15.23;;
41653;SDS011;30790;52.030;7.110;2022-12-18T00:24:53;26.23;;;15.13;;
41653;SDS011;30790;52.030;7.110;2022-12-18T00:27:19;26.55;;;14.23;;
41653;SDS011;30790;52.030;7.110;2022-12-18T00:29:44;24.52;;;14.38;;
41653;SDS011;30790;52.030;7.110;2022-12-18T00:32:09;26.98;;;14.48;;
41653;SDS011;30790;52.030;7.110;2022-12-18T00:34:35;25.35;;;15.00;;
41653;SDS011;30790;52.030;7.110;2022-12-18T00:37:00;26.20;;;14.30;;
41653;SDS011;30790;52.030;7.110;2022-12-18T00:39:25;22.23;;;13.90;;
41653;SDS011;30790;52.030;7.110;2022-12-18T00:41:50;24.05;;;13.60;;
41653;SDS011;30790;52.030;7.110;2022-12-18T00:44:34;25.50;;;14.25;;
41653;SDS011;30790;52.030;7.110;2022-12-18T00:47:00;21.92;;;13.73;;
41653;SDS011;30790;52.030;7.110;2022-12-18T00:49:25;20.80;;;13.48;;
41653;SDS011;30790;52.030;7.110;2022-12-18T00:51:50;23.52;;;13.40;;
41653;SDS011;30790;52.030;7.110;2022-12-18T00:54:16;26.65;;;15.15;;
41653;SDS011;30790;52.030;7.110;2022-12-18T00:56:41;23.77;;;13.98;;
41653;SDS011;30790;52.030;7.110;2022-12-18T00:59:07;22.75;;;13.27;;
41653;SDS011;30790;52.030;7.110;2022-12-18T01:01:32;23.10;;;13.65;;
41653;SDS011;30790;52.030;7.110;2022-12-18T01:03:58;22.40;;;13.50;;
41653;SDS011;30790;52.030;7.110;2022-12-18T01:06:25;20.35;;;13.20;;
41653;SDS011;30790;52.030;7.110;2022-12-18T01:08:50;24.77;;;13.82;;
41653;SDS011;30790;52.030;7.110;2022-12-18T01:11:16;21.63;;;13.77;;
41653;SDS011;30790;52.030;7.110;2022-12-18T01:13:44;23.25;;;13.20;;
41653;SDS011;30790;52.030;7.110;2022-12-18T01:16:14;22.83;;;13.10;;
41653;SDS011;30790;52.030;7.110;2022-12-18T01:18:41;22.48;;;12.18;;
41653;SDS011;30790;52.030;7.110;2022-12-18T01:21:11;22.58;;;13.85;;
41653;SDS011;30790;52.030;7.110;2022-12-18T01:23:38;22.33;;;12.30;;
41653;SDS011;30790;52.030;7.110;2022-12-18T01:26:04;21.17;;;13.10;;
41653;SDS011;30790;52.030;7.110;2022-12-18T01:28:37;22.52;;;13.40;;
41653;SDS011;30790;52.030;7.110;2022-12-18T01:33:42;24.45;;;12.70;;
41653;SDS011;30790;52.030;7.110;2022-12-18T01:36:07;21.27;;;12.82;;
41653;SDS011;30790;52.030;7.110;2022-12-18T01:38:33;21.70;;;12.98;;
41653;SDS011;30790;52.030;7.110;2022-12-18T01:40:59;22.85;;;13.82;;
41653;SDS011;30790;52.030;7.110;2022-12-18T01:43:45;20.88;;;12.15;;
41653;SDS011;30790;52.030;7.110;2022-12-18T01:46:13;19.45;;;12.45;;
41653;SDS011;30790;52.030;7.110;2022-12-18T01:48:39;22.42;;;12.45;;
41653;SDS011;30790;52.030;7.110;2022-12-18T01:51:06;20.45;;;11.90;;
41653;SDS011;30790;52.030;7.110;2022-12-18T01:53:32;19.25;;;11.63;;
41653;SDS011;30790;52.030;7.110;2022-12-18T01:55:58;22.25;;;11.48;;
41653;SDS011;30790;52.030;7.110;2022-12-18T01:58:30;21.15;;;12.88;;
41653;SDS011;30790;52.030;7.110;2022-12-18T02:01:02;22.90;;;12.68;;
41653;SDS011;30790;52.030;7.110;2022-12-18T02:03:27;20.63;;;12.18;;
41653;SDS011;30790;52.030;7.110;2022-12-18T02:05:59;18.73;;;12.02;;
41653;SDS011;30790;52.030;7.110;2022-12-18T02:08:34;22.75;;;12.65;;
41653;SDS011;30790;52.030;7.110;2022-12-18T02:11:15;19.67;;;11.95;;
41653;SDS011;30790;52.030;7.110;2022-12-18T02:14:08;22.00;;;13.23;;
41653;SDS011;30790;52.030;7.110;2022-12-18T02:22:17;20.55;;;11.73;;
41653;SDS011;30790;52.030;7.110;2022-12-18T02:24:57;18.73;;;11.82;;
41653;SDS011;30790;52.030;7.110;2022-12-18T02:27:24;18.73;;;11.20;;
41653;SDS011;30790;52.030;7.110;2022-12-18T02:29:50;19.17;;;11.38;;
41653;SDS011;30790;52.030;7.110;2022-12-18T02:32:20;16.35;;;10.73;;
41653;SDS011;30790;52.030;7.110;2022-12-18T02:34:50;20.90;;;11.45;;
41653;SDS011;30790;52.030;7.110;2022-12-18T02:37:18;19.63;;;11.23;;
41653;SDS011;30790;52.030;7.110;2022-12-18T02:39:45;18.65;;;11.93;;
41653;SDS011;30790;52.030;7.110;2022-12-18T02:42:13;17.90;;;11.90;;
41653;SDS011;30790;52.030;7.110;2022-12-18T02:44:47;20.67;;;12.70;;
41653;SDS011;30790;52.030;7.110;2022-12-18T02:47:14;18.05;;;10.63;;
41653;SDS011;30790;52.030;7.110;2022-12-18T02:55:29;19.52;;;10.88;;
41653;SDS011;30790;52.030;7.110;2022-12-18T03:01:11;18.73;;;10.85;;
41653;SDS011;30790;52.030;7.110;2022-12-18T03:03:52;15.43;;;10.00;;
41653;SDS011;30790;52.030;7.110;2022-12-18T03:08:51;17.83;;;10.50;;
41653;SDS011;30790;52.030;7.110;2022-12-18T03:11:24;17.40;;;10.07;;
41653;SDS011;30790;52.030;7.110;2022-12-18T03:14:12;16.05;;;10.30;;
41653;SDS011;30790;52.030;7.110;2022-12-18T03:16:40;17.92;;;10.90;;
41653;SDS011;30790;52.030;7.110;2022-12-18T03:19:08;17.77;;;10.85;;
41653;SDS011;30790;52.030;7.110;2022-12-18T03:21:45;16.15;;;9.77;;
41653;SDS011;30790;52.030;7.110;2022-12-18T03:24:12;18.88;;;11.05;;
41653;SDS011;30790;52.030;7.110;2022-12-18T03:26:40;17.52;;;10.73;;
41653;SDS011;30790;52.030;7.110;2022-12-18T03:29:09;15.38;;;10.30;;
41653;SDS011;30790;52.030;7.110;2022-12-18T03:31:42;15.80;;;9.95;;
41653;SDS011;30790;52.030;7.110;2022-12-18T03:34:15;15.45;;;9.52;;
41653;SDS011;30790;52.030;7.110;2022-12-18T03:36:44;15.65;;;10.23;;
41653;SDS011;30790;52.030;7.110;2022-12-18T03:39:10;14.93;;;9.38;;
41653;SDS011;30790;52.030;7.110;2022-12-18T03:44:13;16.52;;;10.02;;
41653;SDS011;30790;52.030;7.110;2022-12-18T03:46:54;14.70;;;9.15;;
41653;SDS011;30790;52.030;7.110;2022-12-18T03:52:17;14.18;;;9.10;;
41653;SDS011;30790;52.030;7.110;2022-12-18T03:54:49;13.65;;;9.07;;
41653;SDS011;30790;52.030;7.110;2022-12-18T03:57:17;15.60;;;9.70;;
41653;SDS011;30790;52.030;7.110;2022-12-18T03:59:45;13.55;;;9.50;;
41653;SDS011;30790;52.030;7.110;2022-12-18T04:02:14;14.32;;;9.10;;
41653;SDS011;30790;52.030;7.110;2022-12-18T04:04:42;15.55;;;10.20;;
41653;SDS011;30790;52.030;7.110;2022-12-18T04:07:09;16.42;;;10.10;;
41653;SDS011;30790;52.030;7.110;2022-12-18T04:09:35;15.75;;;9.90;;
41653;SDS011;30790;52.030;7.110;2022-12-18T04:12:01;14.98;;;9.48;;
41653;SDS011;30790;52.030;7.110;2022-12-18T04:14:27;14.25;;;9.27;;
41653;SDS011;30790;52.030;7.110;2022-12-18T04:16:52;16.08;;;9.52;;
41653;SDS011;30790;52.030;7.110;2022-12-18T04:19:17;12.73;;;8.55;;
41653;SDS011;30790;52.030;7.110;2022-12-18T04:21:43;15.00;;;9.60;;
41653;SDS011;30790;52.030;7.110;2022-12-18T04:24:08;14.30;;;8.93;;
41653;SDS011;30790;52.030;7.110;2022-12-18T04:26:33;12.88;;;8.82;;
41653;SDS011;30790;52.030;7.110;2022-12-18T04:28:59;13.57;;;9.00;;
41653;SDS011;30790;52.030;7.110;2022-12-18T04:31:24;14.27;;;9.23;;
41653;SDS011;30790;52.030;7.110;2022-12-18T04:33:50;14.32;;;9.07;;
41653;SDS011;30790;52.030;7.110;2022-12-18T04:36:15;14.88;;;9.23;;
41653;SDS011;30790;52.030;7.110;2022-12-18T04:38:41;14.30;;;8.70;;
41653;SDS011;30790;52.030;7.110;2022-12-18T04:41:06;13.85;;;8.50;;
41653;SDS011;30790;52.030;7.110;2022-12-18T04:43:31;13.60;;;8.82;;
41653;SDS011;30790;52.030;7.110;2022-12-18T04:46:01;12.27;;;8.15;;
41653;SDS011;30790;52.030;7.110;2022-12-18T04:48:28;13.23;;;8.88;;
41653;SDS011;30790;52.030;7.110;2022-12-18T04:50:53;11.43;;;7.82;;
41653;SDS011;30790;52.030;7.110;2022-12-18T04:53:18;13.43;;;8.60;;
41653;SDS011;30790;52.030;7.110;2022-12-18T04:55:44;13.38;;;8.55;;
41653;SDS011;30790;52.030;7.110;2022-12-18T04:58:09;11.60;;;7.72;;
41653;SDS011;30790;52.030;7.110;2022-12-18T05:00:34;13.07;;;8.23;;
41653;SDS011;30790;52.030;7.110;2022-12-18T05:03:00;12.65;;;8.73;;
41653;SDS011;30790;52.030;7.110;2022-12-18T05:05:26;12.65;;;8.20;;
41653;SDS011;30790;52.030;7.110;2022-12-18T05:07:52;12.27;;;8.30;;
41653;SDS011;30790;52.030;7.110;2022-12-18T05:10:17;13.75;;;9.27;;
41653;SDS011;30790;52.030;7.110;2022-12-18T05:12:42;12.40;;;7.93;;
41653;SDS011;30790;52.030;7.110;2022-12-18T05:15:23;13.18;;;8.70;;
41653;SDS011;30790;52.030;7.110;2022-12-18T05:17:49;14.23;;;8.90;;
41653;SDS011;30790;52.030;7.110;2022-12-18T05:20:14;13.10;;;8.48;;
41653;SDS011;30790;52.030;7.110;2022-12-18T05:22:40;13.52;;;8.50;;
41653;SDS011;30790;52.030;7.110;2022-12-18T05:25:05;12.32;;;7.68;;
41653;SDS011;30790;52.030;7.110;2022-12-18T05:27:30;11.38;;;7.82;;
41653;SDS011;30790;52.030;7.110;2022-12-18T05:29:56;13.38;;;8.75;;
41653;SDS011;30790;52.030;7.110;2022-12-18T05:32:21;12.98;;;8.32;;
41653;SDS011;30790;52.030;7.110;2022-12-18T05:34:46;10.88;;;7.10;;
41653;SDS011;30790;52.030;7.110;2022-12-18T05:37:12;15.32;;;8.23;;
41653;SDS011;30790;52.030;7.110;2022-12-18T05:39:37;10.90;;;7.30;;
41653;SDS011;30790;52.030;7.110;2022-12-18T05:42:02;13.63;;;8.10;;
41653;SDS011;30790;52.030;7.110;2022-12-18T05:44:28;11.68;;;7.30;;
41653;SDS011;30790;52.030;7.110;2022-12-18T05:46:53;13.65;;;7.65;;
41653;SDS011;30790;52.030;7.110;2022-12-18T05:49:18;12.35;;;7.78;;
41653;SDS011;30790;52.030;7.110;2022-12-18T05:51:44;10.88;;;7.40;;
41653;SDS011;30790;52.030;7.110;2022-12-18T05:54:09;11.38;;;7.60;;
41653;SDS011;30790;52.030;7.110;2022-12-18T05:56:34;13.38;;;7.50;;
41653;SDS011;30790;52.030;7.110;2022-12-18T05:58:59;11.77;;;7.35;;
41653;SDS011;30790;52.030;7.110;2022-12-18T06:01:25;12.57;;;7.88;;
41653;SDS011;30790;52.030;7.110;2022-12-18T06:03:51;10.48;;;6.55;;
41653;SDS011;30790;52.030;7.110;2022-12-18T06:06:17;11.70;;;7.05;;
41653;SDS011;30790;52.030;7.110;2022-12-18T06:08:45;11.25;;;7.75;;
41653;SDS011;30790;52.030;7.110;2022-12-18T06:11:11;11.63;;;7.30;;
41653;SDS011;30790;52.030;7.110;2022-12-18T06:13:36;10.23;;;6.90;;
41653;SDS011;30790;52.030;7.110;2022-12-18T06:16:03;10.00;;;7.05;;
41653;SDS011;30790;52.030;7.110;2022-12-18T06:18:33;11.65;;;7.38;;
41653;SDS011;30790;52.030;7.110;2022-12-18T06:20:59;11.57;;;7.55;;
41653;SDS011;30790;52.030;7.110;2022-12-18T06:23:25;10.70;;;6.63;;
41653;SDS011;30790;52.030;7.110;2022-12-18T06:25:50;10.63;;;7.30;;
41653;SDS011;30790;52.030;7.110;2022-12-18T06:28:16;10.20;;;7.25;;
41653;SDS011;30790;52.030;7.110;2022-12-18T06:30:45;13.48;;;7.63;;
41653;SDS011;30790;52.030;7.110;2022-12-18T06:33:12;9.32;;;6.38;;
41653;SDS011;30790;52.030;7.110;2022-12-18T06:35:37;7.20;;;5.45;;
41653;SDS011;30790;52.030;7.110;2022-12-18T06:38:02;12.60;;;7.32;;
41653;SDS011;30790;52.030;7.110;2022-12-18T06:40:28;10.77;;;7.05;;
41653;SDS011;30790;52.030;7.110;2022-12-18T06:42:53;11.80;;;7.60;;
41653;SDS011;30790;52.030;7.110;2022-12-18T06:45:19;11.50;;;7.75;;
41653;SDS011;30790;52.030;7.110;2022-12-18T06:47:44;9.40;;;6.47;;
41653;SDS011;30790;52.030;7.110;2022-12-18T06:50:09;10.25;;;6.80;;
41653;SDS011;30790;52.030;7.110;2022-12-18T06:52:35;10.77;;;7.50;;
41653;SDS011;30790;52.030;7.110;2022-12-18T06:55:01;10.43;;;7.25;;
41653;SDS011;30790;52.030;7.110;2022-12-18T06:57:27;9.18;;;6.93;;
41653;SDS011;30790;52.030;7.110;2022-12-18T06:59:52;9.65;;;6.88;;
41653;SDS011;30790;52.030;7.110;2022-12-18T07:02:17;9.63;;;6.57;;
41653;SDS011;30790;52.030;7.110;2022-12-18T07:04:43;11.25;;;7.43;;
41653;SDS011;30790;52.030;7.110;2022-12-18T07:07:08;12.38;;;7.70;;
41653;SDS011;30790;52.030;7.110;2022-12-18T07:09:33;11.15;;;6.82;;
41653;SDS011;30790;52.030;7.110;2022-12-18T07:11:58;10.43;;;6.50;;
41653;SDS011;30790;52.030;7.110;2022-12-18T07:14:24;12.02;;;6.90;;
41653;SDS011;30790;52.030;7.110;2022-12-18T07:16:49;10.30;;;6.47;;
41653;SDS011;30790;52.030;7.110;2022-12-18T07:19:14;11.10;;;7.35;;
41653;SDS011;30790;52.030;7.110;2022-12-18T07:21:39;12.27;;;7.15;;
41653;SDS011;30790;52.030;7.110;2022-12-18T07:24:05;10.18;;;6.78;;
41653;SDS011;30790;52.030;7.110;2022-12-18T07:26:30;10.80;;;6.53;;
41653;SDS011;30790;52.030;7.110;2022-12-18T07:28:56;8.73;;;6.30;;
41653;SDS011;30790;52.030;7.110;2022-12-18T07:31:22;10.45;;;6.55;;
41653;SDS011;30790;52.030;7.110;2022-12-18T07:33:48;12.40;;;7.78;;
41653;SDS011;30790;52.030;7.110;2022-12-18T07:36:15;11.38;;;6.57;;
41653;SDS011;30790;52.030;7.110;2022-12-18T07:38:40;9.57;;;7.10;;
41653;SDS011;30790;52.030;7.110;2022-12-18T07:41:10;9.05;;;6.43;;
41653;SDS011;30790;52.030;7.110;2022-12-18T07:43:37;10.32;;;6.90;;
41653;SDS011;30790;52.030;7.110;2022-12-18T07:46:03;10.98;;;7.18;;
41653;SDS011;30790;52.030;7.110;2022-12-18T07:48:29;8.55;;;6.32;;
41653;SDS011;30790;52.030;7.110;2022-12-18T07:51:01;10.85;;;6.97;;
41653;SDS011;30790;52.030;7.110;2022-12-18T07:53:29;10.48;;;6.55;;
41653;SDS011;30790;52.030;7.110;2022-12-18T07:55:58;11.50;;;6.75;;
41653;SDS011;30790;52.030;7.110;2022-12-18T07:58:24;12.38;;;6.88;;
41653;SDS011;30790;52.030;7.110;2022-12-18T08:00:50;9.52;;;6.15;;
41653;SDS011;30790;52.030;7.110;2022-12-18T08:03:15;10.68;;;6.43;;
41653;SDS011;30790;52.030;7.110;2022-12-18T08:05:40;10.07;;;6.68;;
41653;SDS011;30790;52.030;7.110;2022-12-18T08:08:06;9.50;;;6.15;;
41653;SDS011;30790;52.030;7.110;2022-12-18T08:10:31;10.18;;;6.43;;
41653;SDS011;30790;52.030;7.110;2022-12-18T08:12:56;11.13;;;5.82;;
41653;SDS011;30790;52.030;7.110;2022-12-18T08:15:21;11.18;;;7.07;;
41653;SDS011;30790;52.030;7.110;2022-12-18T08:17:47;8.18;;;5.93;;
41653;SDS011;30790;52.030;7.110;2022-12-18T08:20:12;9.27;;;6.05;;
41653;SDS011;30790;52.030;7.110;2022-12-18T08:22:39;10.63;;;5.78;;
41653;SDS011;30790;52.030;7.110;2022-12-18T08:25:06;8.68;;;6.03;;
41653;SDS011;30790;52.030;7.110;2022-12-18T08:27:31;10.82;;;5.95;;
41653;SDS011;30790;52.030;7.110;2022-12-18T08:29:57;9.27;;;5.82;;
41653;SDS011;30790;52.030;7.110;2022-12-18T08:32:23;9.70;;;5.75;;
41653;SDS011;30790;52.030;7.110;2022-12-18T08:34:48;9.85;;;5.60;;
41653;SDS011;30790;52.030;7.110;2022-12-18T08:37:14;10.30;;;6.07;;
41653;SDS011;30790;52.030;7.110;2022-12-18T08:39:39;10.65;;;5.78;;
41653;SDS011;30790;52.030;7.110;2022-12-18T08:42:04;11.13;;;5.60;;
41653;SDS011;30790;52.030;7.110;2022-12-18T08:44:48;9.55;;;5.40;;
41653;SDS011;30790;52.030;7.110;2022-12-18T08:47:13;6.85;;;5.15;;
41653;SDS011;30790;52.030;7.110;2022-12-18T08:49:38;8.20;;;5.38;;
41653;SDS011;30790;52.030;7.110;2022-12-18T08:52:04;11.05;;;5.47;;
41653;SDS011;30790;52.030;7.110;2022-12-18T08:54:29;9.52;;;5.32;;
41653;SDS011;30790;52.030;7.110;2022-12-18T08:56:55;10.27;;;5.80;;
41653;SDS011;30790;52.030;7.110;2022-12-18T08:59:20;8.80;;;5.38;;
41653;SDS011;30790;52.030;7.110;2022-12-18T09:01:45;8.68;;;5.38;;
41653;SDS011;30790;52.030;7.110;2022-12-18T09:04:12;9.95;;;5.28;;
41653;SDS011;30790;52.030;7.110;2022-12-18T09:06:38;11.88;;;5.15;;
41653;SDS011;30790;52.030;7.110;2022-12-18T09:09:04;8.85;;;5.30;;
41653;SDS011;30790;52.030;7.110;2022-12-18T09:11:30;8.90;;;5.10;;
41653;SDS011;30790;52.030;7.110;2022-12-18T09:13:57;7.80;;;4.72;;
41653;SDS011;30790;52.030;7.110;2022-12-18T09:16:24;13.02;;;5.13;;
41653;SDS011;30790;52.030;7.110;2022-12-18T09:18:50;10.35;;;5.13;;
41653;SDS011;30790;52.030;7.110;2022-12-18T09:21:16;15.65;;;5.15;;
41653;SDS011;30790;52.030;7.110;2022-12-18T09:23:48;11.95;;;5.75;;
41653;SDS011;30790;52.030;7.110;2022-12-18T09:26:15;8.25;;;4.70;;
41653;SDS011;30790;52.030;7.110;2022-12-18T09:28:40;9.18;;;4.78;;
41653;SDS011;30790;52.030;7.110;2022-12-18T09:31:06;10.20;;;5.28;;
41653;SDS011;30790;52.030;7.110;2022-12-18T09:33:32;8.60;;;5.22;;
41653;SDS011;30790;52.030;7.110;2022-12-18T09:36:00;9.10;;;5.05;;
41653;SDS011;30790;52.030;7.110;2022-12-18T09:38:26;9.18;;;5.00;;
41653;SDS011;30790;52.030;7.110;2022-12-18T09:40:53;7.22;;;4.70;;
41653;SDS011;30790;52.030;7.110;2022-12-18T09:43:24;9.55;;;5.35;;
41653;SDS011;30790;52.030;7.110;2022-12-18T09:45:56;8.55;;;4.97;;
41653;SDS011;30790;52.030;7.110;2022-12-18T09:48:31;8.05;;;4.53;;
41653;SDS011;30790;52.030;7.110;2022-12-18T09:51:19;15.23;;;4.65;;
41653;SDS011;30790;52.030;7.110;2022-12-18T09:53:56;12.07;;;4.53;;
41653;SDS011;30790;52.030;7.110;2022-12-18T09:58:58;14.10;;;4.22;;
41653;SDS011;30790;52.030;7.110;2022-12-18T10:01:24;16.58;;;5.88;;
41653;SDS011;30790;52.030;7.110;2022-12-18T10:03:51;17.15;;;7.63;;
41653;SDS011;30790;52.030;7.110;2022-12-18T10:06:21;18.40;;;7.18;;
41653;SDS011;30790;52.030;7.110;2022-12-18T10:17:35;28.45;;;7.38;;
41653;SDS011;30790;52.030;7.110;2022-12-18T10:23:08;24.95;;;8.23;;
41653;SDS011;30790;52.030;7.110;2022-12-18T10:28:25;32.85;;;7.47;;
41653;SDS011;30790;52.030;7.110;2022-12-18T10:30:51;21.40;;;6.75;;
41653;SDS011;30790;52.030;7.110;2022-12-18T10:33:19;25.73;;;8.02;;
41653;SDS011;30790;52.030;7.110;2022-12-18T10:35:47;18.13;;;7.10;;
41653;SDS011;30790;52.030;7.110;2022-12-18T10:43:28;25.27;;;7.10;;
41653;SDS011;30790;52.030;7.110;2022-12-18T10:48:33;30.48;;;7.65;;
41653;SDS011;30790;52.030;7.110;2022-12-18T10:51:01;24.33;;;6.97;;
41653;SDS011;30790;52.030;7.110;2022-12-18T10:53:29;22.23;;;6.32;;
41653;SDS011;30790;52.030;7.110;2022-12-18T10:55:56;21.10;;;6.45;;
41653;SDS011;30790;52.030;7.110;2022-12-18T10:58:34;28.45;;;6.88;;
41653;SDS011;30790;52.030;7.110;2022-12-18T11:03:38;17.15;;;6.40;;
41653;SDS011;30790;52.030;7.110;2022-12-18T11:06:11;23.00;;;6.88;;
41653;SDS011;30790;52.030;7.110;2022-12-18T11:08:43;28.17;;;7.13;;
41653;SDS011;30790;52.030;7.110;2022-12-18T11:11:23;29.00;;;7.07;;
41653;SDS011;30790;52.030;7.110;2022-12-18T11:16:45;28.23;;;7.20;;
41653;SDS011;30790;52.030;7.110;2022-12-18T11:21:49;16.60;;;6.07;;
41653;SDS011;30790;52.030;7.110;2022-12-18T11:24:32;28.88;;;6.88;;
41653;SDS011;30790;52.030;7.110;2022-12-18T11:27:03;18.17;;;6.20;;
41653;SDS011;30790;52.030;7.110;2022-12-18T11:29:38;21.90;;;6.07;;
41653;SDS011;30790;52.030;7.110;2022-12-18T11:34:55;22.27;;;6.32;;
41653;SDS011;30790;52.030;7.110;2022-12-18T11:37:27;17.65;;;6.15;;
41653;SDS011;30790;52.030;7.110;2022-12-18T11:39:57;15.68;;;5.60;;
41653;SDS011;30790;52.030;7.110;2022-12-18T11:45:23;24.52;;;5.43;;
41653;SDS011;30790;52.030;7.110;2022-12-18T11:47:54;22.98;;;5.57;;
41653;SDS011;30790;52.030;7.110;2022-12-18T11:50:25;25.02;;;6.20;;
41653;SDS011;30790;52.030;7.110;2022-12-18T11:52:56;20.55;;;6.35;;
41653;SDS011;30790;52.030;7.110;2022-12-18T12:09:00;17.45;;;5.25;;
41653;SDS011;30790;52.030;7.110;2022-12-18T12:14:43;19.58;;;5.57;;
41653;SDS011;30790;52.030;7.110;2022-12-18T12:17:20;19.83;;;5.30;;
41653;SDS011;30790;52.030;7.110;2022-12-18T12:19:49;21.35;;;5.05;;
41653;SDS011;30790;52.030;7.110;2022-12-18T12:36:19;26.35;;;8.88;;
41653;SDS011;30790;52.030;7.110;2022-12-18T12:38:55;21.27;;;7.38;;
41653;SDS011;30790;52.030;7.110;2022-12-18T12:41:24;23.00;;;7.35;;
41653;SDS011;30790;52.030;7.110;2022-12-18T12:44:23;25.70;;;7.95;;
41653;SDS011;30790;52.030;7.110;2022-12-18T12:46:52;30.42;;;7.97;;
41653;SDS011;30790;52.030;7.110;2022-12-18T12:49:22;22.13;;;6.53;;
41653;SDS011;30790;52.030;7.110;2022-12-18T12:52:05;27.30;;;6.97;;
41653;SDS011;30790;52.030;7.110;2022-12-18T12:54:38;24.33;;;6.72;;
41653;SDS011;30790;52.030;7.110;2022-12-18T13:00:07;36.72;;;8.00;;
41653;SDS011;30790;52.030;7.110;2022-12-18T13:05:09;30.77;;;7.90;;
41653;SDS011;30790;52.030;7.110;2022-12-18T13:07:47;30.13;;;6.97;;
41653;SDS011;30790;52.030;7.110;2022-12-18T13:18:32;34.38;;;7.95;;
41653;SDS011;30790;52.030;7.110;2022-12-18T13:34:21;41.88;;;8.68;;
41653;SDS011;30790;52.030;7.110;2022-12-18T13:36:48;45.80;;;8.18;;
41653;SDS011;30790;52.030;7.110;2022-12-18T13:41:47;60.17;;;11.07;;
41653;SDS011;30790;52.030;7.110;2022-12-18T13:44:36;50.72;;;9.95;;
41653;SDS011;30790;52.030;7.110;2022-12-18T13:49:56;48.17;;;9.55;;
41653;SDS011;30790;52.030;7.110;2022-12-18T13:52:22;50.45;;;10.68;;
41653;SDS011;30790;52.030;7.110;2022-12-18T13:54:53;50.63;;;10.45;;
41653;SDS011;30790;52.030;7.110;2022-12-18T13:57:27;49.38;;;9.80;;
41653;SDS011;30790;52.030;7.110;2022-12-18T13:59:57;60.05;;;10.52;;
41653;SDS011;30790;52.030;7.110;2022-12-18T14:02:25;58.38;;;10.25;;
41653;SDS011;30790;52.030;7.110;2022-12-18T14:04:52;51.42;;;10.63;;
41653;SDS011;30790;52.030;7.110;2022-12-18T14:07:23;52.28;;;11.23;;
41653;SDS011;30790;52.030;7.110;2022-12-18T14:09:51;47.33;;;10.23;;
41653;SDS011;30790;52.030;7.110;2022-12-18T14:12:22;62.00;;;10.52;;
41653;SDS011;30790;52.030;7.110;2022-12-18T14:15:55;68.05;;;10.25;;
41653;SDS011;30790;52.030;7.110;2022-12-18T14:18:01;49.08;;;8.88;;
41653;SDS011;30790;52.030;7.110;2022-12-18T14:20:29;72.88;;;10.95;;
41653;SDS011;30790;52.030;7.110;2022-12-18T14:22:57;66.55;;;10.48;;
41653;SDS011;30790;52.030;7.110;2022-12-18T14:25:24;81.97;;;10.40;;
41653;SDS011;30790;52.030;7.110;2022-12-18T14:30:34;68.07;;;10.70;;
41653;SDS011;30790;52.030;7.110;2022-12-18T14:35:34;75.22;;;11.90;;
41653;SDS011;30790;52.030;7.110;2022-12-18T14:40:41;52.28;;;9.52;;
41653;SDS011;30790;52.030;7.110;2022-12-18T14:43:09;49.47;;;10.75;;
41653;SDS011;30790;52.030;7.110;2022-12-18T14:45:39;59.53;;;11.23;;
41653;SDS011;30790;52.030;7.110;2022-12-18T14:48:17;59.75;;;10.20;;
41653;SDS011;30790;52.030;7.110;2022-12-18T14:50:43;48.53;;;10.18;;
41653;SDS011;30790;52.030;7.110;2022-12-18T14:53:21;42.63;;;9.90;;
41653;SDS011;30790;52.030;7.110;2022-12-18T14:55:52;51.33;;;9.18;;
41653;SDS011;30790;52.030;7.110;2022-12-18T14:58:18;62.25;;;10.38;;
41653;SDS011;30790;52.030;7.110;2022-12-18T15:00:43;68.70;;;10.15;;
41653;SDS011;30790;52.030;7.110;2022-12-18T15:03:09;54.22;;;9.95;;
41653;SDS011;30790;52.030;7.110;2022-12-18T15:05:35;43.13;;;9.48;;
41653;SDS011;30790;52.030;7.110;2022-12-18T15:08:01;52.53;;;9.55;;
41653;SDS011;30790;52.030;7.110;2022-12-18T15:10:31;44.25;;;9.00;;
41653;SDS011;30790;52.030;7.110;2022-12-18T15:26:08;43.25;;;9.27;;
41653;SDS011;30790;52.030;7.110;2022-12-18T15:33:36;42.65;;;8.43;;
41653;SDS011;30790;52.030;7.110;2022-12-18T15:36:13;46.35;;;7.63;;
41653;SDS011;30790;52.030;7.110;2022-12-18T15:38:40;35.63;;;7.43;;
41653;SDS011;30790;52.030;7.110;2022-12-18T15:41:05;37.15;;;7.72;;
41653;SDS011;30790;52.030;7.110;2022-12-18T15:43:38;41.95;;;8.10;;
41653;SDS011;30790;52.030;7.110;2022-12-18T15:46:04;46.15;;;8.63;;
41653;SDS011;30790;52.030;7.110;2022-12-18T15:48:42;35.72;;;7.47;;
41653;SDS011;30790;52.030;7.110;2022-12-18T15:53:40;33.13;;;7.13;;
41653;SDS011;30790;52.030;7.110;2022-12-18T15:56:10;37.20;;;7.93;;
41653;SDS011;30790;52.030;7.110;2022-12-18T15:58:55;33.35;;;7.65;;
41653;SDS011;30790;52.030;7.110;2022-12-18T16:01:22;29.88;;;6.78;;
41653;SDS011;30790;52.030;7.110;2022-12-18T16:03:49;26.15;;;6.80;;
41653;SDS011;30790;52.030;7.110;2022-12-18T16:06:14;34.97;;;7.03;;
41653;SDS011;30790;52.030;7.110;2022-12-18T16:08:40;31.00;;;6.95;;
41653;SDS011;30790;52.030;7.110;2022-12-18T16:11:05;37.75;;;6.20;;
41653;SDS011;30790;52.030;7.110;2022-12-18T16:13:31;50.38;;;7.13;;
41653;SDS011;30790;52.030;7.110;2022-12-18T16:15:56;56.80;;;7.68;;
41653;SDS011;30790;52.030;7.110;2022-12-18T16:18:22;50.40;;;7.20;;
41653;SDS011;30790;52.030;7.110;2022-12-18T16:20:47;37.40;;;7.20;;
41653;SDS011;30790;52.030;7.110;2022-12-18T16:23:13;30.73;;;6.78;;
41653;SDS011;30790;52.030;7.110;2022-12-18T16:25:38;33.08;;;6.32;;
41653;SDS011;30790;52.030;7.110;2022-12-18T16:28:03;31.75;;;7.53;;
41653;SDS011;30790;52.030;7.110;2022-12-18T16:30:29;37.72;;;6.80;;
41653;SDS011;30790;52.030;7.110;2022-12-18T16:32:56;29.27;;;6.10;;
41653;SDS011;30790;52.030;7.110;2022-12-18T16:35:22;29.38;;;5.80;;
41653;SDS011;30790;52.030;7.110;2022-12-18T16:37:48;28.80;;;5.75;;
41653;SDS011;30790;52.030;7.110;2022-12-18T16:40:14;28.73;;;6.15;;
41653;SDS011;30790;52.030;7.110;2022-12-18T16:42:41;32.05;;;6.00;;
41653;SDS011;30790;52.030;7.110;2022-12-18T16:45:08;30.45;;;5.95;;
41653;SDS011;30790;52.030;7.110;2022-12-18T16:47:34;29.73;;;5.55;;
41653;SDS011;30790;52.030;7.110;2022-12-18T16:49:59;27.75;;;5.65;;
41653;SDS011;30790;52.030;7.110;2022-12-18T16:52:25;44.00;;;6.82;;
41653;SDS011;30790;52.030;7.110;2022-12-18T16:54:51;29.48;;;6.28;;
41653;SDS011;30790;52.030;7.110;2022-12-18T16:57:17;33.70;;;6.50;;
41653;SDS011;30790;52.030;7.110;2022-12-18T16:59:43;32.22;;;5.63;;
41653;SDS011;30790;52.030;7.110;2022-12-18T17:02:13;33.92;;;6.70;;
41653;SDS011;30790;52.030;7.110;2022-12-18T17:04:40;27.17;;;5.18;;
41653;SDS011;30790;52.030;7.110;2022-12-18T17:07:06;30.00;;;5.78;;
41653;SDS011;30790;52.030;7.110;2022-12-18T17:09:32;33.17;;;5.82;;
41653;SDS011;30790;52.030;7.110;2022-12-18T17:11:57;46.03;;;6.93;;
41653;SDS011;30790;52.030;7.110;2022-12-18T17:14:24;34.58;;;6.45;;